sensor_id;sensor_type;location;lat;lon;timestamp;pressure;altitude;pressure_sealevel;temperature;humidity
62952;BME280;52163;52.212;-1.002;2023-02-18T00:01:10;101005.34;;;11.02;100.00
62952;BME280;52163;52.212;-1.002;2023-02-18T00:03:36;100997.33;;;11.03;100.00
62952;BME280;52163;52.212;-1.002;2023-02-18T00:06:10;100993.73;;;11.04;100.00
62952;BME280;52163;52.212;-1.002;2023-02-18T00:08:36;100996.02;;;11.05;100.00
62952;BME280;52163;52.212;-1.002;2023-02-18T00:11:04;100993.42;;;11.04;100.00
62952;BME280;52163;52.212;-1.002;2023-02-18T00:13:30;100991.30;;;11.03;100.00
62952;BME280;52163;52.212;-1.002;2023-02-18T00:16:00;100984.40;;;11.04;100.00
62952;BME280;52163;52.212;-1.002;2023-02-18T00:18:26;100985.13;;;11.03;100.00
62952;BME280;52163;52.212;-1.002;2023-02-18T00:20:51;100980.08;;;11.02;100.00
62952;BME280;52163;52.212;-1.002;2023-02-18T00:23:17;100987.98;;;11.00;100.00
62952;BME280;52163;52.212;-1.002;2023-02-18T00:25:42;100980.19;;;10.97;99.85
62952;BME280;52163;52.212;-1.002;2023-02-18T00:28:07;100980.18;;;10.94;99.82
62952;BME280;52163;52.212;-1.002;2023-02-18T00:30:33;100977.30;;;10.92;99.82
62952;BME280;52163;52.212;-1.002;2023-02-18T00:32:58;100980.49;;;10.91;99.86
62952;BME280;52163;52.212;-1.002;2023-02-18T00:35:24;100973.74;;;10.92;99.70
62952;BME280;52163;52.212;-1.002;2023-02-18T00:37:52;100979.23;;;10.92;99.62
62952;BME280;52163;52.212;-1.002;2023-02-18T00:40:18;100979.35;;;10.93;99.83
62952;BME280;52163;52.212;-1.002;2023-02-18T00:42:44;100976.36;;;10.93;99.63
62952;BME280;52163;52.212;-1.002;2023-02-18T00:45:09;100974.71;;;10.90;99.50
62952;BME280;52163;52.212;-1.002;2023-02-18T00:47:35;100969.47;;;10.89;99.50
62952;BME280;52163;52.212;-1.002;2023-02-18T00:50:00;100971.77;;;10.89;99.19
62952;BME280;52163;52.212;-1.002;2023-02-18T00:52:26;100976.45;;;10.91;99.52
62952;BME280;52163;52.212;-1.002;2023-02-18T00:54:51;100966.30;;;10.92;99.23
62952;BME280;52163;52.212;-1.002;2023-02-18T00:57:16;100966.48;;;10.92;99.09
62952;BME280;52163;52.212;-1.002;2023-02-18T00:59:42;100959.96;;;10.92;99.03
62952;BME280;52163;52.212;-1.002;2023-02-18T01:02:07;100959.89;;;10.90;98.83
62952;BME280;52163;52.212;-1.002;2023-02-18T01:04:33;100955.84;;;10.90;98.89
62952;BME280;52163;52.212;-1.002;2023-02-18T01:06:58;100955.27;;;10.91;98.70
62952;BME280;52163;52.212;-1.002;2023-02-18T01:09:23;100954.77;;;10.90;98.53
62952;BME280;52163;52.212;-1.002;2023-02-18T01:11:50;100952.15;;;10.89;98.42
62952;BME280;52163;52.212;-1.002;2023-02-18T01:14:15;100950.08;;;10.88;98.28
62952;BME280;52163;52.212;-1.002;2023-02-18T01:16:41;100946.16;;;10.89;98.47
62952;BME280;52163;52.212;-1.002;2023-02-18T01:19:06;100940.23;;;10.87;98.38
62952;BME280;52163;52.212;-1.002;2023-02-18T01:21:32;100945.45;;;10.86;98.41
62952;BME280;52163;52.212;-1.002;2023-02-18T01:23:57;100946.65;;;10.86;98.66
62952;BME280;52163;52.212;-1.002;2023-02-18T01:26:23;100936.29;;;10.85;98.85
62952;BME280;52163;52.212;-1.002;2023-02-18T01:28:49;100929.60;;;10.85;99.15
62952;BME280;52163;52.212;-1.002;2023-02-18T01:31:15;100922.73;;;10.84;99.42
62952;BME280;52163;52.212;-1.002;2023-02-18T01:33:41;100930.04;;;10.83;99.71
62952;BME280;52163;52.212;-1.002;2023-02-18T01:36:08;100924.52;;;10.80;99.38
62952;BME280;52163;52.212;-1.002;2023-02-18T01:38:35;100921.11;;;10.78;99.52
62952;BME280;52163;52.212;-1.002;2023-02-18T01:41:01;100913.40;;;10.77;99.35
62952;BME280;52163;52.212;-1.002;2023-02-18T01:43:26;100915.95;;;10.75;99.40
62952;BME280;52163;52.212;-1.002;2023-02-18T01:48:37;100905.14;;;10.76;99.69
62952;BME280;52163;52.212;-1.002;2023-02-18T01:51:21;100902.13;;;10.76;99.63
62952;BME280;52163;52.212;-1.002;2023-02-18T01:54:14;100901.08;;;10.76;99.42
62952;BME280;52163;52.212;-1.002;2023-02-18T01:56:47;100898.04;;;10.73;99.36
62952;BME280;52163;52.212;-1.002;2023-02-18T01:59:23;100896.96;;;10.70;99.19
62952;BME280;52163;52.212;-1.002;2023-02-18T02:01:50;100893.83;;;10.66;98.99
62952;BME280;52163;52.212;-1.002;2023-02-18T02:04:16;100891.64;;;10.64;99.28
62952;BME280;52163;52.212;-1.002;2023-02-18T02:06:42;100886.91;;;10.64;99.41
62952;BME280;52163;52.212;-1.002;2023-02-18T02:09:10;100877.52;;;10.61;99.35
62952;BME280;52163;52.212;-1.002;2023-02-18T02:25:31;100875.95;;;10.14;99.07
62952;BME280;52163;52.212;-1.002;2023-02-18T02:39:19;100859.73;;;9.93;98.89
62952;BME280;52163;52.212;-1.002;2023-02-18T02:44:24;100863.00;;;9.87;98.85
62952;BME280;52163;52.212;-1.002;2023-02-18T02:47:02;100852.08;;;9.83;98.77
62952;BME280;52163;52.212;-1.002;2023-02-18T02:49:56;100855.42;;;9.77;98.21
62952;BME280;52163;52.212;-1.002;2023-02-18T02:52:32;100861.35;;;9.71;98.29
62952;BME280;52163;52.212;-1.002;2023-02-18T02:54:59;100862.95;;;9.68;98.23
62952;BME280;52163;52.212;-1.002;2023-02-18T02:59:54;100863.56;;;9.63;98.10
62952;BME280;52163;52.212;-1.002;2023-02-18T03:02:25;100864.15;;;9.62;97.96
62952;BME280;52163;52.212;-1.002;2023-02-18T03:08:00;100850.06;;;9.57;97.27
62952;BME280;52163;52.212;-1.002;2023-02-18T03:13:06;100853.77;;;9.50;96.70
62952;BME280;52163;52.212;-1.002;2023-02-18T03:16:03;100846.04;;;9.50;96.67
62952;BME280;52163;52.212;-1.002;2023-02-18T03:18:39;100837.60;;;9.49;96.45
62952;BME280;52163;52.212;-1.002;2023-02-18T03:21:08;100830.84;;;9.50;96.55
62952;BME280;52163;52.212;-1.002;2023-02-18T03:23:48;100818.32;;;9.50;96.50
62952;BME280;52163;52.212;-1.002;2023-02-18T03:26:16;100818.73;;;9.49;95.80
62952;BME280;52163;52.212;-1.002;2023-02-18T03:28:44;100816.44;;;9.46;95.84
62952;BME280;52163;52.212;-1.002;2023-02-18T03:31:18;100808.10;;;9.43;95.40
62952;BME280;52163;52.212;-1.002;2023-02-18T03:33:51;100797.95;;;9.42;95.46
62952;BME280;52163;52.212;-1.002;2023-02-18T03:36:20;100789.28;;;9.42;95.54
62952;BME280;52163;52.212;-1.002;2023-02-18T03:38:53;100782.92;;;9.42;95.19
62952;BME280;52163;52.212;-1.002;2023-02-18T03:41:21;100780.82;;;9.42;95.02
62952;BME280;52163;52.212;-1.002;2023-02-18T03:43:53;100760.31;;;9.40;94.96
62952;BME280;52163;52.212;-1.002;2023-02-18T03:46:26;100762.09;;;9.36;94.73
62952;BME280;52163;52.212;-1.002;2023-02-18T03:48:51;100771.63;;;9.32;94.49
62952;BME280;52163;52.212;-1.002;2023-02-18T03:51:18;100770.86;;;9.29;94.76
62952;BME280;52163;52.212;-1.002;2023-02-18T03:53:44;100771.50;;;9.27;94.72
62952;BME280;52163;52.212;-1.002;2023-02-18T03:56:10;100763.98;;;9.26;94.61
62952;BME280;52163;52.212;-1.002;2023-02-18T03:58:35;100747.40;;;9.23;94.37
62952;BME280;52163;52.212;-1.002;2023-02-18T04:01:01;100752.58;;;9.22;94.39
62952;BME280;52163;52.212;-1.002;2023-02-18T04:03:26;100761.08;;;9.21;94.26
62952;BME280;52163;52.212;-1.002;2023-02-18T04:05:52;100762.41;;;9.19;93.98
62952;BME280;52163;52.212;-1.002;2023-02-18T04:08:17;100761.43;;;9.18;93.93
62952;BME280;52163;52.212;-1.002;2023-02-18T04:10:42;100749.34;;;9.17;93.94
62952;BME280;52163;52.212;-1.002;2023-02-18T04:13:08;100736.31;;;9.16;93.98
62952;BME280;52163;52.212;-1.002;2023-02-18T04:15:33;100726.46;;;9.16;93.66
62952;BME280;52163;52.212;-1.002;2023-02-18T04:17:59;100719.05;;;9.16;93.57
62952;BME280;52163;52.212;-1.002;2023-02-18T04:20:24;100715.73;;;9.15;93.77
62952;BME280;52163;52.212;-1.002;2023-02-18T04:22:50;100714.19;;;9.14;93.30
62952;BME280;52163;52.212;-1.002;2023-02-18T04:25:15;100723.59;;;9.13;93.22
62952;BME280;52163;52.212;-1.002;2023-02-18T04:27:41;100727.88;;;9.12;93.01
62952;BME280;52163;52.212;-1.002;2023-02-18T04:30:07;100722.57;;;9.12;92.92
62952;BME280;52163;52.212;-1.002;2023-02-18T04:32:33;100724.39;;;9.14;92.96
62952;BME280;52163;52.212;-1.002;2023-02-18T04:34:58;100727.43;;;9.17;92.99
62952;BME280;52163;52.212;-1.002;2023-02-18T04:37:24;100731.77;;;9.19;92.94
62952;BME280;52163;52.212;-1.002;2023-02-18T04:39:49;100731.73;;;9.20;92.73
62952;BME280;52163;52.212;-1.002;2023-02-18T04:42:15;100730.38;;;9.18;92.54
62952;BME280;52163;52.212;-1.002;2023-02-18T04:44:40;100731.33;;;9.17;92.70
62952;BME280;52163;52.212;-1.002;2023-02-18T04:47:06;100735.99;;;9.19;92.89
62952;BME280;52163;52.212;-1.002;2023-02-18T04:49:32;100738.48;;;9.22;92.65
62952;BME280;52163;52.212;-1.002;2023-02-18T04:51:58;100739.77;;;9.24;92.86
62952;BME280;52163;52.212;-1.002;2023-02-18T04:54:23;100733.81;;;9.27;92.72
62952;BME280;52163;52.212;-1.002;2023-02-18T04:56:49;100730.73;;;9.28;92.32
62952;BME280;52163;52.212;-1.002;2023-02-18T04:59:15;100726.14;;;9.28;92.72
62952;BME280;52163;52.212;-1.002;2023-02-18T05:01:41;100719.55;;;9.30;92.72
62952;BME280;52163;52.212;-1.002;2023-02-18T05:04:07;100712.37;;;9.33;92.87
62952;BME280;52163;52.212;-1.002;2023-02-18T05:06:32;100714.34;;;9.35;93.24
62952;BME280;52163;52.212;-1.002;2023-02-18T05:08:58;100712.57;;;9.39;93.52
62952;BME280;52163;52.212;-1.002;2023-02-18T05:11:23;100715.23;;;9.42;93.85
62952;BME280;52163;52.212;-1.002;2023-02-18T05:13:48;100710.69;;;9.45;94.07
62952;BME280;52163;52.212;-1.002;2023-02-18T05:16:14;100712.79;;;9.49;94.16
62952;BME280;52163;52.212;-1.002;2023-02-18T05:18:39;100707.84;;;9.52;94.43
62952;BME280;52163;52.212;-1.002;2023-02-18T05:21:05;100703.05;;;9.56;94.57
62952;BME280;52163;52.212;-1.002;2023-02-18T05:23:30;100703.17;;;9.60;94.91
62952;BME280;52163;52.212;-1.002;2023-02-18T05:25:56;100708.31;;;9.63;94.93
62952;BME280;52163;52.212;-1.002;2023-02-18T05:28:21;100708.06;;;9.65;95.10
62952;BME280;52163;52.212;-1.002;2023-02-18T05:30:47;100708.84;;;9.67;94.95
62952;BME280;52163;52.212;-1.002;2023-02-18T05:33:12;100704.38;;;9.68;95.25
62952;BME280;52163;52.212;-1.002;2023-02-18T05:35:38;100702.20;;;9.69;95.37
62952;BME280;52163;52.212;-1.002;2023-02-18T05:38:04;100700.34;;;9.70;95.50
62952;BME280;52163;52.212;-1.002;2023-02-18T05:40:29;100700.66;;;9.71;95.87
62952;BME280;52163;52.212;-1.002;2023-02-18T05:42:55;100700.28;;;9.72;95.87
62952;BME280;52163;52.212;-1.002;2023-02-18T05:45:20;100691.63;;;9.72;96.13
62952;BME280;52163;52.212;-1.002;2023-02-18T05:47:46;100680.33;;;9.72;96.22
62952;BME280;52163;52.212;-1.002;2023-02-18T05:50:11;100680.88;;;9.72;96.42
62952;BME280;52163;52.212;-1.002;2023-02-18T05:52:37;100682.48;;;9.71;96.52
62952;BME280;52163;52.212;-1.002;2023-02-18T05:55:03;100680.13;;;9.69;96.88
62952;BME280;52163;52.212;-1.002;2023-02-18T05:57:29;100687.58;;;9.68;97.05
62952;BME280;52163;52.212;-1.002;2023-02-18T05:59:54;100689.89;;;9.68;97.36
62952;BME280;52163;52.212;-1.002;2023-02-18T06:02:20;100688.05;;;9.69;97.66
62952;BME280;52163;52.212;-1.002;2023-02-18T06:04:45;100681.13;;;9.70;97.76
62952;BME280;52163;52.212;-1.002;2023-02-18T06:07:10;100679.17;;;9.71;97.90
62952;BME280;52163;52.212;-1.002;2023-02-18T06:09:36;100670.68;;;9.71;98.11
62952;BME280;52163;52.212;-1.002;2023-02-18T06:12:01;100676.17;;;9.71;98.46
62952;BME280;52163;52.212;-1.002;2023-02-18T06:14:27;100666.73;;;9.69;98.26
62952;BME280;52163;52.212;-1.002;2023-02-18T06:16:52;100668.41;;;9.67;98.86
62952;BME280;52163;52.212;-1.002;2023-02-18T06:19:18;100670.96;;;9.66;98.88
62952;BME280;52163;52.212;-1.002;2023-02-18T06:21:43;100672.06;;;9.65;99.23
62952;BME280;52163;52.212;-1.002;2023-02-18T06:24:09;100665.48;;;9.66;99.28
62952;BME280;52163;52.212;-1.002;2023-02-18T06:26:34;100662.78;;;9.67;99.53
62952;BME280;52163;52.212;-1.002;2023-02-18T06:29:00;100661.75;;;9.67;99.45
62952;BME280;52163;52.212;-1.002;2023-02-18T06:31:25;100660.42;;;9.65;99.79
62952;BME280;52163;52.212;-1.002;2023-02-18T06:33:51;100668.42;;;9.64;99.88
62952;BME280;52163;52.212;-1.002;2023-02-18T06:36:16;100667.66;;;9.62;99.90
62952;BME280;52163;52.212;-1.002;2023-02-18T06:38:43;100658.92;;;9.60;99.95
62952;BME280;52163;52.212;-1.002;2023-02-18T06:41:10;100655.11;;;9.58;100.00
62952;BME280;52163;52.212;-1.002;2023-02-18T06:43:37;100654.40;;;9.59;100.00
62952;BME280;52163;52.212;-1.002;2023-02-18T06:46:03;100652.86;;;9.58;100.00
62952;BME280;52163;52.212;-1.002;2023-02-18T06:48:29;100656.39;;;9.58;100.00
62952;BME280;52163;52.212;-1.002;2023-02-18T06:50:54;100660.88;;;9.56;100.00
62952;BME280;52163;52.212;-1.002;2023-02-18T06:53:20;100661.65;;;9.55;100.00
62952;BME280;52163;52.212;-1.002;2023-02-18T06:55:45;100675.49;;;9.53;100.00
62952;BME280;52163;52.212;-1.002;2023-02-18T06:58:12;100685.74;;;9.53;100.00
62952;BME280;52163;52.212;-1.002;2023-02-18T07:00:38;100685.80;;;9.52;100.00
62952;BME280;52163;52.212;-1.002;2023-02-18T07:03:04;100684.34;;;9.53;100.00
62952;BME280;52163;52.212;-1.002;2023-02-18T07:05:29;100682.55;;;9.53;100.00
62952;BME280;52163;52.212;-1.002;2023-02-18T07:07:55;100691.58;;;9.53;100.00
62952;BME280;52163;52.212;-1.002;2023-02-18T07:10:20;100693.45;;;9.54;100.00
62952;BME280;52163;52.212;-1.002;2023-02-18T07:12:46;100691.98;;;9.55;100.00
62952;BME280;52163;52.212;-1.002;2023-02-18T07:15:12;100695.11;;;9.59;100.00
62952;BME280;52163;52.212;-1.002;2023-02-18T07:17:38;100700.59;;;9.63;100.00
62952;BME280;52163;52.212;-1.002;2023-02-18T07:20:05;100697.46;;;9.65;100.00
62952;BME280;52163;52.212;-1.002;2023-02-18T07:22:31;100703.65;;;9.68;100.00
62952;BME280;52163;52.212;-1.002;2023-02-18T07:24:57;100702.99;;;9.70;100.00
62952;BME280;52163;52.212;-1.002;2023-02-18T07:27:22;100702.72;;;9.72;100.00
62952;BME280;52163;52.212;-1.002;2023-02-18T07:29:53;100700.62;;;9.76;100.00
62952;BME280;52163;52.212;-1.002;2023-02-18T07:32:19;100702.06;;;9.78;100.00
62952;BME280;52163;52.212;-1.002;2023-02-18T07:34:44;100700.84;;;9.81;100.00
62952;BME280;52163;52.212;-1.002;2023-02-18T07:37:10;100695.52;;;9.81;100.00
62952;BME280;52163;52.212;-1.002;2023-02-18T07:39:41;100695.41;;;9.80;100.00
62952;BME280;52163;52.212;-1.002;2023-02-18T07:42:08;100693.52;;;9.79;100.00
62952;BME280;52163;52.212;-1.002;2023-02-18T07:44:34;100699.75;;;9.78;100.00
62952;BME280;52163;52.212;-1.002;2023-02-18T07:47:00;100701.95;;;9.77;100.00
62952;BME280;52163;52.212;-1.002;2023-02-18T07:49:27;100707.77;;;9.77;100.00
62952;BME280;52163;52.212;-1.002;2023-02-18T07:51:52;100717.91;;;9.79;100.00
62952;BME280;52163;52.212;-1.002;2023-02-18T07:54:17;100731.27;;;9.83;100.00
62952;BME280;52163;52.212;-1.002;2023-02-18T07:56:44;100737.23;;;9.90;100.00
62952;BME280;52163;52.212;-1.002;2023-02-18T07:59:11;100743.33;;;9.98;100.00
62952;BME280;52163;52.212;-1.002;2023-02-18T08:01:37;100744.93;;;10.04;100.00
62952;BME280;52163;52.212;-1.002;2023-02-18T08:04:03;100748.59;;;10.08;100.00
62952;BME280;52163;52.212;-1.002;2023-02-18T08:06:43;100755.09;;;10.13;100.00
62952;BME280;52163;52.212;-1.002;2023-02-18T08:09:13;100753.61;;;10.17;100.00
62952;BME280;52163;52.212;-1.002;2023-02-18T08:11:39;100757.73;;;10.23;100.00
62952;BME280;52163;52.212;-1.002;2023-02-18T08:14:05;100761.25;;;10.29;100.00
62952;BME280;52163;52.212;-1.002;2023-02-18T08:16:31;100766.77;;;10.34;100.00
62952;BME280;52163;52.212;-1.002;2023-02-18T08:18:56;100765.67;;;10.39;100.00
62952;BME280;52163;52.212;-1.002;2023-02-18T08:21:24;100759.85;;;10.42;100.00
62952;BME280;52163;52.212;-1.002;2023-02-18T08:23:50;100753.89;;;10.45;100.00
62952;BME280;52163;52.212;-1.002;2023-02-18T08:26:16;100750.10;;;10.50;100.00
62952;BME280;52163;52.212;-1.002;2023-02-18T08:28:43;100744.70;;;10.54;100.00
62952;BME280;52163;52.212;-1.002;2023-02-18T08:31:18;100741.03;;;10.60;100.00
62952;BME280;52163;52.212;-1.002;2023-02-18T08:33:44;100745.12;;;10.65;100.00
62952;BME280;52163;52.212;-1.002;2023-02-18T08:36:09;100748.80;;;10.69;99.95
62952;BME280;52163;52.212;-1.002;2023-02-18T08:38:35;100747.75;;;10.72;99.91
62952;BME280;52163;52.212;-1.002;2023-02-18T08:41:03;100744.22;;;10.75;99.81
62952;BME280;52163;52.212;-1.002;2023-02-18T08:43:29;100744.98;;;10.78;99.63
62952;BME280;52163;52.212;-1.002;2023-02-18T08:45:56;100752.14;;;10.82;99.60
62952;BME280;52163;52.212;-1.002;2023-02-18T08:48:22;100756.73;;;10.88;99.66
62952;BME280;52163;52.212;-1.002;2023-02-18T08:50:48;100760.89;;;10.96;99.31
62952;BME280;52163;52.212;-1.002;2023-02-18T08:53:14;100762.11;;;11.02;99.09
62952;BME280;52163;52.212;-1.002;2023-02-18T08:55:40;100759.60;;;11.06;98.68
62952;BME280;52163;52.212;-1.002;2023-02-18T08:58:05;100764.48;;;11.11;98.52
62952;BME280;52163;52.212;-1.002;2023-02-18T09:00:31;100772.77;;;11.14;98.26
62952;BME280;52163;52.212;-1.002;2023-02-18T09:02:57;100776.33;;;11.16;98.29
62952;BME280;52163;52.212;-1.002;2023-02-18T09:05:23;100785.14;;;11.20;98.06
62952;BME280;52163;52.212;-1.002;2023-02-18T09:07:48;100788.77;;;11.21;97.76
62952;BME280;52163;52.212;-1.002;2023-02-18T09:10:14;100796.36;;;11.21;97.52
62952;BME280;52163;52.212;-1.002;2023-02-18T09:12:39;100798.07;;;11.26;97.53
62952;BME280;52163;52.212;-1.002;2023-02-18T09:15:05;100805.85;;;11.31;97.32
62952;BME280;52163;52.212;-1.002;2023-02-18T09:17:30;100808.48;;;11.36;97.08
62952;BME280;52163;52.212;-1.002;2023-02-18T09:19:56;100803.13;;;11.42;97.05
62952;BME280;52163;52.212;-1.002;2023-02-18T09:22:21;100801.79;;;11.56;96.87
62952;BME280;52163;52.212;-1.002;2023-02-18T09:24:47;100809.80;;;11.67;96.48
62952;BME280;52163;52.212;-1.002;2023-02-18T09:27:12;100812.41;;;11.76;96.19
62952;BME280;52163;52.212;-1.002;2023-02-18T09:29:39;100821.55;;;11.86;95.94
62952;BME280;52163;52.212;-1.002;2023-02-18T09:32:06;100828.06;;;11.92;95.33
62952;BME280;52163;52.212;-1.002;2023-02-18T09:34:34;100833.66;;;12.00;94.99
62952;BME280;52163;52.212;-1.002;2023-02-18T09:36:59;100832.83;;;12.05;94.69
62952;BME280;52163;52.212;-1.002;2023-02-18T09:39:25;100833.42;;;12.07;94.41
62952;BME280;52163;52.212;-1.002;2023-02-18T09:41:53;100833.09;;;12.10;94.07
62952;BME280;52163;52.212;-1.002;2023-02-18T09:44:24;100830.25;;;12.10;93.74
62952;BME280;52163;52.212;-1.002;2023-02-18T09:49:34;100844.27;;;12.12;93.66
62952;BME280;52163;52.212;-1.002;2023-02-18T09:52:23;100850.59;;;12.16;93.41
62952;BME280;52163;52.212;-1.002;2023-02-18T09:54:50;100852.35;;;12.16;93.26
62952;BME280;52163;52.212;-1.002;2023-02-18T09:57:43;100861.21;;;12.16;93.31
62952;BME280;52163;52.212;-1.002;2023-02-18T10:05:35;100865.55;;;12.23;94.55
62952;BME280;52163;52.212;-1.002;2023-02-18T10:08:06;100868.40;;;12.26;94.94
62952;BME280;52163;52.212;-1.002;2023-02-18T10:10:42;100870.59;;;12.31;95.29
62952;BME280;52163;52.212;-1.002;2023-02-18T10:13:14;100881.60;;;12.30;95.44
62952;BME280;52163;52.212;-1.002;2023-02-18T10:15:41;100891.10;;;12.31;96.27
62952;BME280;52163;52.212;-1.002;2023-02-18T10:20:43;100898.03;;;12.34;96.75
62952;BME280;52163;52.212;-1.002;2023-02-18T10:23:09;100893.79;;;12.37;97.38
62952;BME280;52163;52.212;-1.002;2023-02-18T10:25:42;100892.70;;;12.43;97.57
62952;BME280;52163;52.212;-1.002;2023-02-18T10:28:10;100880.41;;;12.44;97.41
62952;BME280;52163;52.212;-1.002;2023-02-18T10:30:41;100875.30;;;12.43;97.54
62952;BME280;52163;52.212;-1.002;2023-02-18T10:33:47;100878.91;;;12.48;97.88
62952;BME280;52163;52.212;-1.002;2023-02-18T10:36:35;100880.81;;;12.55;97.74
62952;BME280;52163;52.212;-1.002;2023-02-18T10:49:57;100895.40;;;12.48;98.82
62952;BME280;52163;52.212;-1.002;2023-02-18T10:52:26;100893.20;;;12.52;99.05
62952;BME280;52163;52.212;-1.002;2023-02-18T10:55:07;100900.20;;;12.50;98.83
62952;BME280;52163;52.212;-1.002;2023-02-18T10:57:52;100901.89;;;12.48;98.80
62952;BME280;52163;52.212;-1.002;2023-02-18T11:00:24;100897.76;;;12.47;99.06
62952;BME280;52163;52.212;-1.002;2023-02-18T11:03:21;100898.92;;;12.45;99.32
62952;BME280;52163;52.212;-1.002;2023-02-18T11:05:51;100897.66;;;12.45;99.56
62952;BME280;52163;52.212;-1.002;2023-02-18T11:08:21;100897.09;;;12.49;99.87
62952;BME280;52163;52.212;-1.002;2023-02-18T11:10:48;100896.61;;;12.54;99.86
62952;BME280;52163;52.212;-1.002;2023-02-18T11:13:16;100896.38;;;12.61;99.95
62952;BME280;52163;52.212;-1.002;2023-02-18T11:16:13;100894.45;;;12.60;99.61
62952;BME280;52163;52.212;-1.002;2023-02-18T11:18:43;100895.40;;;12.59;99.66
62952;BME280;52163;52.212;-1.002;2023-02-18T11:21:30;100893.33;;;12.61;99.55
62952;BME280;52163;52.212;-1.002;2023-02-18T11:24:06;100891.20;;;12.67;99.56
62952;BME280;52163;52.212;-1.002;2023-02-18T11:26:34;100892.20;;;12.79;99.76
62952;BME280;52163;52.212;-1.002;2023-02-18T11:29:19;100890.59;;;12.88;98.58
62952;BME280;52163;52.212;-1.002;2023-02-18T11:31:47;100897.42;;;12.95;98.04
62952;BME280;52163;52.212;-1.002;2023-02-18T11:34:17;100895.59;;;12.98;97.46
62952;BME280;52163;52.212;-1.002;2023-02-18T11:36:43;100893.03;;;13.02;97.68
62952;BME280;52163;52.212;-1.002;2023-02-18T11:39:18;100887.34;;;13.14;97.74
62952;BME280;52163;52.212;-1.002;2023-02-18T11:41:53;100892.54;;;13.27;97.76
62952;BME280;52163;52.212;-1.002;2023-02-18T11:44:27;100890.49;;;13.31;97.51
62952;BME280;52163;52.212;-1.002;2023-02-18T11:47:00;100891.00;;;13.29;97.35
62952;BME280;52163;52.212;-1.002;2023-02-18T11:49:26;100890.70;;;13.28;97.16
62952;BME280;52163;52.212;-1.002;2023-02-18T11:51:54;100892.41;;;13.34;97.39
62952;BME280;52163;52.212;-1.002;2023-02-18T11:54:28;100894.67;;;13.46;97.32
62952;BME280;52163;52.212;-1.002;2023-02-18T11:57:01;100894.47;;;13.52;96.77
62952;BME280;52163;52.212;-1.002;2023-02-18T11:59:29;100896.05;;;13.49;97.03
62952;BME280;52163;52.212;-1.002;2023-02-18T12:04:33;100896.16;;;13.56;97.52
62952;BME280;52163;52.212;-1.002;2023-02-18T12:09:51;100890.13;;;13.61;96.99
62952;BME280;52163;52.212;-1.002;2023-02-18T12:15:17;100887.21;;;13.62;96.22
62952;BME280;52163;52.212;-1.002;2023-02-18T12:20:45;100883.46;;;13.57;95.74
62952;BME280;52163;52.212;-1.002;2023-02-18T12:31:43;100867.10;;;14.05;93.94
62952;BME280;52163;52.212;-1.002;2023-02-18T12:44:35;100859.77;;;14.24;91.83
62952;BME280;52163;52.212;-1.002;2023-02-18T12:49:50;100851.56;;;13.99;92.20
62952;BME280;52163;52.212;-1.002;2023-02-18T13:00:50;100867.48;;;13.44;94.49
62952;BME280;52163;52.212;-1.002;2023-02-18T13:11:32;100865.13;;;13.69;96.35
62952;BME280;52163;52.212;-1.002;2023-02-18T13:14:11;100865.81;;;13.69;96.21
62952;BME280;52163;52.212;-1.002;2023-02-18T13:16:40;100870.98;;;13.69;96.50
62952;BME280;52163;52.212;-1.002;2023-02-18T13:22:03;100849.80;;;14.01;96.30
62952;BME280;52163;52.212;-1.002;2023-02-18T13:24:33;100846.17;;;14.04;94.97
62952;BME280;52163;52.212;-1.002;2023-02-18T13:27:45;100851.52;;;14.02;94.45
62952;BME280;52163;52.212;-1.002;2023-02-18T13:32:56;100845.73;;;14.03;93.88
62952;BME280;52163;52.212;-1.002;2023-02-18T13:35:31;100844.71;;;14.13;94.20
62952;BME280;52163;52.212;-1.002;2023-02-18T13:38:47;100840.70;;;14.22;93.24
62952;BME280;52163;52.212;-1.002;2023-02-18T13:41:05;100839.77;;;14.33;91.59
62952;BME280;52163;52.212;-1.002;2023-02-18T13:43:33;100830.58;;;14.37;90.33
62952;BME280;52163;52.212;-1.002;2023-02-18T13:46:17;100833.46;;;14.41;89.79
62952;BME280;52163;52.212;-1.002;2023-02-18T13:51:11;100827.08;;;14.49;88.89
62952;BME280;52163;52.212;-1.002;2023-02-18T13:53:42;100827.16;;;14.53;87.84
62952;BME280;52163;52.212;-1.002;2023-02-18T13:56:26;100825.09;;;14.52;86.92
62952;BME280;52163;52.212;-1.002;2023-02-18T13:59:10;100821.58;;;14.46;86.17
62952;BME280;52163;52.212;-1.002;2023-02-18T14:01:43;100819.48;;;14.46;86.08
62952;BME280;52163;52.212;-1.002;2023-02-18T14:09:57;100807.27;;;14.37;84.92
62952;BME280;52163;52.212;-1.002;2023-02-18T14:17:42;100802.80;;;14.23;84.81
62952;BME280;52163;52.212;-1.002;2023-02-18T14:22:44;100796.99;;;14.09;84.74
62952;BME280;52163;52.212;-1.002;2023-02-18T14:27:37;100791.12;;;14.04;84.74
62952;BME280;52163;52.212;-1.002;2023-02-18T14:32:31;100791.14;;;13.99;84.71
62952;BME280;52163;52.212;-1.002;2023-02-18T14:40:33;100782.65;;;13.96;84.72
62952;BME280;52163;52.212;-1.002;2023-02-18T14:43:10;100778.55;;;13.99;84.75
62952;BME280;52163;52.212;-1.002;2023-02-18T14:51:23;100773.38;;;13.99;84.52
62952;BME280;52163;52.212;-1.002;2023-02-18T14:53:50;100762.61;;;14.01;84.74
62952;BME280;52163;52.212;-1.002;2023-02-18T14:56:17;100762.77;;;14.01;84.37
62952;BME280;52163;52.212;-1.002;2023-02-18T14:59:06;100756.39;;;14.03;84.26
62952;BME280;52163;52.212;-1.002;2023-02-18T15:01:34;100754.79;;;14.09;84.05
62952;BME280;52163;52.212;-1.002;2023-02-18T15:04:01;100751.14;;;14.12;83.99
62952;BME280;52163;52.212;-1.002;2023-02-18T15:06:29;100742.09;;;14.12;83.60
62952;BME280;52163;52.212;-1.002;2023-02-18T15:08:59;100738.48;;;14.10;83.51
62952;BME280;52163;52.212;-1.002;2023-02-18T15:11:34;100744.86;;;14.06;83.75
62952;BME280;52163;52.212;-1.002;2023-02-18T15:14:03;100749.10;;;14.01;83.83
62952;BME280;52163;52.212;-1.002;2023-02-18T15:16:33;100744.48;;;14.01;83.83
62952;BME280;52163;52.212;-1.002;2023-02-18T15:19:05;100743.77;;;14.04;84.07